Time;durP1;ratioP1;P1;durP2;ratioP2;P2;SDS_P1;SDS_P2;PMS_P1;PMS_P2;Temp;Humidity;BMP_temperature;BMP_pressure;BME280_temperature;BME280_humidity;BME280_pressure;Samples;Min_cycle;Max_cycle;Signal;HPM_P1;HPM_P2
2020/12/23 00:00:56;;;;;;;0.80;0.70;;;;;;;;;;4995197;28;20222;-72
2020/12/23 00:04:00;;;;;;;0.80;0.80;;;;;;;;;;5012829;28;20217;-73
2020/12/23 00:07:08;;;;;;;0.80;0.73;;;;;;;;;;5010687;28;20198;-73
2020/12/23 00:10:12;;;;;;;2.97;0.80;;;;;;;;;;4997154;28;20198;-73
2020/12/23 00:13:16;;;;;;;3.30;0.97;;;;;;;;;;4982395;28;20186;-72
2020/12/23 00:16:20;;;;;;;2.80;0.80;;;;;;;;;;4982228;28;20194;-72
2020/12/23 00:19:25;;;;;;;1.40;0.80;;;;;;;;;;4996048;28;20197;-72
2020/12/23 00:22:29;;;;;;;1.13;0.70;;;;;;;;;;4993843;28;20222;-72
2020/12/23 00:25:33;;;;;;;1.53;0.90;;;;;;;;;;5013158;28;20189;-73
2020/12/23 00:28:38;;;;;;;3.07;0.70;;;;;;;;;;5012934;28;20194;-72
2020/12/23 00:31:42;;;;;;;2.40;0.83;;;;;;;;;;4993992;28;20558;-72
2020/12/23 00:34:47;;;;;;;1.47;1.00;;;;;;;;;;4994883;28;20174;-72
2020/12/23 00:37:51;;;;;;;3.00;1.00;;;;;;;;;;4993740;28;20178;-72
2020/12/23 00:40:55;;;;;;;1.03;0.87;;;;;;;;;;4982841;28;20585;-72
2020/12/23 00:43:59;;;;;;;0.93;0.80;;;;;;;;;;4982533;28;20685;-72
2020/12/23 00:47:03;;;;;;;1.47;0.80;;;;;;;;;;4981731;28;20181;-72
2020/12/23 00:50:07;;;;;;;1.10;0.80;;;;;;;;;;4991649;28;20189;-72
2020/12/23 00:53:12;;;;;;;2.07;0.83;;;;;;;;;;5012874;28;20185;-72
2020/12/23 00:56:16;;;;;;;2.07;0.90;;;;;;;;;;4993540;28;20186;-72
2020/12/23 00:59:20;;;;;;;1.60;1.00;;;;;;;;;;4997042;28;20185;-72
2020/12/23 01:02:24;;;;;;;1.47;0.80;;;;;;;;;;5012807;28;20220;-72
2020/12/23 01:05:28;;;;;;;3.53;0.97;;;;;;;;;;5012232;28;20209;-72
2020/12/23 01:08:32;;;;;;;1.27;0.70;;;;;;;;;;5013091;28;20185;-72
2020/12/23 01:11:36;;;;;;;0.90;0.80;;;;;;;;;;4993456;28;20221;-72
2020/12/23 01:14:41;;;;;;;1.00;0.70;;;;;;;;;;4993453;28;20183;-72
2020/12/23 01:17:45;;;;;;;1.90;1.00;;;;;;;;;;5009997;28;20209;-72
2020/12/23 01:20:49;;;;;;;0.90;0.70;;;;;;;;;;5014799;28;20216;-72
2020/12/23 01:23:53;;;;;;;0.87;0.60;;;;;;;;;;4997249;28;20213;-73
2020/12/23 01:26:58;;;;;;;0.80;0.70;;;;;;;;;;4997149;28;20181;-72
2020/12/23 01:30:03;;;;;;;2.23;1.00;;;;;;;;;;4993827;28;20561;-73
2020/12/23 01:33:08;;;;;;;4.23;0.73;;;;;;;;;;5004541;28;20185;-72
2020/12/23 01:36:12;;;;;;;1.17;0.73;;;;;;;;;;5014568;28;20189;-72
2020/12/23 01:39:17;;;;;;;4.27;0.90;;;;;;;;;;5015422;28;20182;-72
2020/12/23 01:42:21;;;;;;;2.03;0.70;;;;;;;;;;5016545;28;20213;-73
2020/12/23 01:45:25;;;;;;;3.63;0.60;;;;;;;;;;5016275;28;20206;-72
2020/12/23 01:48:31;;;;;;;1.10;0.80;;;;;;;;;;5016347;28;20185;-72
2020/12/23 01:51:35;;;;;;;1.50;0.70;;;;;;;;;;5000688;28;20213;-72
2020/12/23 01:54:40;;;;;;;1.33;0.80;;;;;;;;;;4984770;28;20193;-72
2020/12/23 01:57:44;;;;;;;0.83;0.60;;;;;;;;;;5003821;28;20193;-72
2020/12/23 02:00:48;;;;;;;1.27;0.67;;;;;;;;;;5001420;28;20226;-72
2020/12/23 02:03:53;;;;;;;0.90;0.60;;;;;;;;;;4984407;28;20178;-72
2020/12/23 02:06:57;;;;;;;0.77;0.60;;;;;;;;;;4984354;28;20665;-72
2020/12/23 02:10:04;;;;;;;1.27;0.80;;;;;;;;;;5003902;28;20197;-73
2020/12/23 02:13:09;;;;;;;0.77;0.60;;;;;;;;;;5003336;28;20209;-72
2020/12/23 02:16:14;;;;;;;5.00;0.70;;;;;;;;;;5006444;28;20530;-72
2020/12/23 02:19:18;;;;;;;1.37;0.77;;;;;;;;;;4985076;28;20202;-72
2020/12/23 02:22:23;;;;;;;0.73;0.50;;;;;;;;;;4996226;28;20222;-72
2020/12/23 02:25:27;;;;;;;2.47;0.63;;;;;;;;;;4995919;28;20214;-72
2020/12/23 02:28:31;;;;;;;0.83;0.57;;;;;;;;;;4984003;28;20194;-72
2020/12/23 02:31:35;;;;;;;0.73;0.53;;;;;;;;;;4983937;28;20721;-72
2020/12/23 02:34:39;;;;;;;1.47;0.60;;;;;;;;;;4984921;28;20186;-72
2020/12/23 02:37:44;;;;;;;0.67;0.47;;;;;;;;;;4996060;28;20629;-72
2020/12/23 02:40:48;;;;;;;0.90;0.50;;;;;;;;;;4996728;28;20217;-72
2020/12/23 02:43:52;;;;;;;0.57;0.50;;;;;;;;;;4998778;28;20193;-72
2020/12/23 02:47:02;;;;;;;0.57;0.47;;;;;;;;;;4983612;28;20194;-72
2020/12/23 02:50:07;;;;;;;0.40;0.40;;;;;;;;;;4995537;28;20187;-72
2020/12/23 02:53:11;;;;;;;0.73;0.60;;;;;;;;;;5001476;28;20645;-72
2020/12/23 02:56:15;;;;;;;1.43;0.50;;;;;;;;;;5014239;28;20205;-72
2020/12/23 02:59:19;;;;;;;0.90;0.50;;;;;;;;;;5014707;28;20189;-72
2020/12/23 03:02:23;;;;;;;0.70;0.50;;;;;;;;;;4996094;28;20565;-73
2020/12/23 03:05:27;;;;;;;0.67;0.57;;;;;;;;;;4997458;28;20214;-73
2020/12/23 03:08:31;;;;;;;1.40;0.50;;;;;;;;;;5015308;28;20632;-73
2020/12/23 03:11:36;;;;;;;0.67;0.47;;;;;;;;;;5013666;28;20217;-73
2020/12/23 03:14:40;;;;;;;0.60;0.40;;;;;;;;;;4996235;28;20190;-73
2020/12/23 03:17:44;;;;;;;1.60;0.40;;;;;;;;;;4995923;28;20202;-73
2020/12/23 03:20:49;;;;;;;1.23;0.40;;;;;;;;;;4996239;28;20225;-73
2020/12/23 03:23:53;;;;;;;0.60;0.40;;;;;;;;;;5002957;28;20198;-72
2020/12/23 03:26:57;;;;;;;1.50;0.50;;;;;;;;;;4995925;28;20178;-73
2020/12/23 03:30:02;;;;;;;0.93;0.50;;;;;;;;;;4994760;28;20182;-72
2020/12/23 03:33:06;;;;;;;0.50;0.50;;;;;;;;;;5007211;28;20186;-73
2020/12/23 03:36:11;;;;;;;0.73;0.40;;;;;;;;;;4994796;28;20178;-73
2020/12/23 03:39:15;;;;;;;0.60;0.50;;;;;;;;;;4982723;28;20193;-73
2020/12/23 03:42:19;;;;;;;2.83;0.40;;;;;;;;;;4993998;28;20214;-72
2020/12/23 03:45:23;;;;;;;1.10;0.43;;;;;;;;;;4995554;28;20214;-72
2020/12/23 03:48:27;;;;;;;0.60;0.40;;;;;;;;;;4994414;28;20190;-72
2020/12/23 03:51:31;;;;;;;3.50;0.40;;;;;;;;;;4996327;28;20213;-72
2020/12/23 03:54:36;;;;;;;0.50;0.50;;;;;;;;;;4997305;28;20656;-72
2020/12/23 03:57:40;;;;;;;2.30;0.47;;;;;;;;;;4982316;28;20185;-72
2020/12/23 04:00:44;;;;;;;1.07;0.40;;;;;;;;;;4994372;28;20522;-72
2020/12/23 04:03:48;;;;;;;0.80;0.33;;;;;;;;;;5001334;28;20541;-72
2020/12/23 04:06:52;;;;;;;1.20;0.50;;;;;;;;;;4972485;28;20182;-73
2020/12/23 04:09:56;;;;;;;1.07;0.40;;;;;;;;;;4994099;28;20194;-72
2020/12/23 04:13:00;;;;;;;0.50;0.40;;;;;;;;;;5007659;28;20672;-72
2020/12/23 04:16:04;;;;;;;6.33;0.40;;;;;;;;;;4994554;28;20178;-72
2020/12/23 04:19:08;;;;;;;0.57;0.50;;;;;;;;;;5010250;22;20221;-71
2020/12/23 04:22:12;;;;;;;0.60;0.50;;;;;;;;;;4992828;28;20221;-70
2020/12/23 04:25:16;;;;;;;1.00;0.50;;;;;;;;;;4993806;28;20561;-71
2020/12/23 04:28:21;;;;;;;0.30;0.30;;;;;;;;;;4999060;28;20550;-71
2020/12/23 04:31:25;;;;;;;1.23;0.40;;;;;;;;;;5012563;28;20224;-71
2020/12/23 04:34:29;;;;;;;1.27;0.40;;;;;;;;;;4993291;28;20178;-71
2020/12/23 04:37:34;;;;;;;0.43;0.40;;;;;;;;;;5009726;28;20193;-71
2020/12/23 04:40:39;;;;;;;1.03;0.50;;;;;;;;;;5012937;28;20177;-71
2020/12/23 04:43:43;;;;;;;0.60;0.50;;;;;;;;;;5013602;28;20652;-71
2020/12/23 04:46:48;;;;;;;0.80;0.53;;;;;;;;;;5000537;28;20209;-71
2020/12/23 04:49:56;;;;;;;0.93;0.60;;;;;;;;;;4984131;28;20201;-71
2020/12/23 04:53:00;;;;;;;2.27;0.60;;;;;;;;;;5002644;28;20197;-71
2020/12/23 04:56:04;;;;;;;1.00;0.80;;;;;;;;;;4998767;28;20182;-71
2020/12/23 04:59:08;;;;;;;1.37;0.60;;;;;;;;;;5008554;28;20189;-71
2020/12/23 05:02:12;;;;;;;1.03;0.50;;;;;;;;;;5004804;28;20220;-70
2020/12/23 05:05:17;;;;;;;0.63;0.53;;;;;;;;;;5017549;28;20213;-71
2020/12/23 05:08:21;;;;;;;0.50;0.50;;;;;;;;;;5010905;28;20209;-71
2020/12/23 05:11:25;;;;;;;2.40;0.53;;;;;;;;;;5007988;28;20570;-70
2020/12/23 05:14:30;;;;;;;0.50;0.50;;;;;;;;;;5015218;28;20181;-71
2020/12/23 05:17:34;;;;;;;0.70;0.50;;;;;;;;;;5004657;28;20541;-71
2020/12/23 05:20:38;;;;;;;0.57;0.47;;;;;;;;;;5011365;28;20201;-71
2020/12/23 05:23:48;;;;;;;0.57;0.47;;;;;;;;;;4997391;28;20190;-71
2020/12/23 05:26:57;;;;;;;1.00;0.50;;;;;;;;;;4999331;28;20217;-71
2020/12/23 05:30:02;;;;;;;0.83;0.50;;;;;;;;;;4999046;28;20202;-71
2020/12/23 05:33:07;;;;;;;1.60;0.60;;;;;;;;;;4985451;28;20202;-71
2020/12/23 05:36:17;;;;;;;0.73;0.40;;;;;;;;;;4998262;28;20198;-71
2020/12/23 05:39:21;;;;;;;0.40;0.40;;;;;;;;;;5008308;28;20194;-71
2020/12/23 05:42:26;;;;;;;2.00;0.40;;;;;;;;;;5015967;28;20220;-71
2020/12/23 05:45:31;;;;;;;0.43;0.40;;;;;;;;;;5009270;28;20202;-71
2020/12/23 05:48:39;;;;;;;0.70;0.57;;;;;;;;;;4989791;28;20543;-71
2020/12/23 05:51:44;;;;;;;1.50;0.50;;;;;;;;;;5007647;28;20210;-71
2020/12/23 05:54:51;;;;;;;1.50;0.80;;;;;;;;;;5003918;28;20186;-71
2020/12/23 05:57:55;;;;;;;1.20;0.70;;;;;;;;;;5002032;28;20621;-71
2020/12/23 06:01:04;;;;;;;1.03;0.70;;;;;;;;;;5015397;28;20217;-71
2020/12/23 06:04:12;;;;;;;0.93;0.67;;;;;;;;;;5000389;28;20198;-71
2020/12/23 06:07:18;;;;;;;0.73;0.50;;;;;;;;;;4984798;28;20210;-71
2020/12/23 06:10:24;;;;;;;0.60;0.43;;;;;;;;;;4974123;28;20202;-71
2020/12/23 06:13:50;;;;;;;0.60;0.40;;;;;;;;;;4998243;28;20640;-71
2020/12/23 06:16:57;;;;;;;0.93;0.80;;;;;;;;;;4996339;28;20625;-71
2020/12/23 06:20:02;;;;;;;1.27;1.17;;;;;;;;;;4996009;28;20205;-71
2020/12/23 06:23:14;;;;;;;1.17;0.90;;;;;;;;;;4995425;28;20194;-71
2020/12/23 06:26:22;;;;;;;4.30;0.90;;;;;;;;;;4973610;28;20218;-71
2020/12/23 06:29:29;;;;;;;5.73;1.10;;;;;;;;;;4996178;28;20194;-71
2020/12/23 06:32:33;;;;;;;1.30;0.90;;;;;;;;;;4995666;28;20221;-71
2020/12/23 06:35:38;;;;;;;1.40;0.90;;;;;;;;;;5000350;28;20181;-71
2020/12/23 06:38:42;;;;;;;2.27;2.07;;;;;;;;;;5015483;28;20185;-70
2020/12/23 06:41:50;;;;;;;3.50;3.20;;;;;;;;;;5014859;28;20247;-71
2020/12/23 06:45:03;;;;;;;2.20;1.83;;;;;;;;;;5001332;28;20201;-71
2020/12/23 06:48:16;;;;;;;3.80;1.10;;;;;;;;;;4997710;28;20182;-71
2020/12/23 06:51:40;;;;;;;0.77;0.70;;;;;;;;;;4988418;28;20226;-71
2020/12/23 06:55:05;;;;;;;1.67;1.00;;;;;;;;;;5015615;28;20533;-71
2020/12/23 06:58:10;;;;;;;1.00;0.80;;;;;;;;;;5013887;28;20186;-71
2020/12/23 07:01:15;;;;;;;1.53;0.50;;;;;;;;;;5014826;28;20552;-70
2020/12/23 07:04:20;;;;;;;0.77;0.70;;;;;;;;;;5010425;28;20198;-71
2020/12/23 07:07:28;;;;;;;4.03;2.07;;;;;;;;;;4995399;28;20542;-70
2020/12/23 07:10:37;;;;;;;1.53;1.10;;;;;;;;;;4995033;28;20202;-71
2020/12/23 07:13:41;;;;;;;0.73;0.70;;;;;;;;;;5012197;28;20652;-71
2020/12/23 07:16:45;;;;;;;0.90;0.63;;;;;;;;;;4994496;28;20178;-71
2020/12/23 07:19:49;;;;;;;0.77;0.60;;;;;;;;;;4994957;28;20209;-71
2020/12/23 07:22:53;;;;;;;1.13;0.67;;;;;;;;;;4982968;28;20182;-71
2020/12/23 07:26:09;;;;;;;0.80;0.60;;;;;;;;;;4996057;28;20660;-71
2020/12/23 07:29:14;;;;;;;2.10;1.57;;;;;;;;;;5014690;28;20194;-70
2020/12/23 07:32:22;;;;;;;7.07;4.00;;;;;;;;;;5014013;28;20213;-70
2020/12/23 07:35:27;;;;;;;15.17;7.57;;;;;;;;;;5002510;28;20518;-71
2020/12/23 07:38:37;;;;;;;15.30;8.43;;;;;;;;;;5014204;28;20197;-71
2020/12/23 07:41:53;;;;;;;13.60;7.17;;;;;;;;;;4998614;28;20578;-71
2020/12/23 07:45:00;;;;;;;26.17;12.90;;;;;;;;;;5013173;28;20542;-71
2020/12/23 07:48:18;;;;;;;38.07;20.13;;;;;;;;;;5013052;28;20189;-71
2020/12/23 07:51:22;;;;;;;17.83;10.00;;;;;;;;;;5001842;28;20240;-71
2020/12/23 07:54:27;;;;;;;7.67;3.87;;;;;;;;;;4994748;28;20189;-71
2020/12/23 07:57:31;;;;;;;4.37;1.93;;;;;;;;;;4994224;28;20178;-73
2020/12/23 08:00:37;;;;;;;3.80;3.20;;;;;;;;;;4982088;28;20210;-71
2020/12/23 08:03:41;;;;;;;13.73;9.27;;;;;;;;;;4994027;28;20652;-71
2020/12/23 08:06:45;;;;;;;28.00;17.77;;;;;;;;;;5005898;28;20205;-71
2020/12/23 08:09:49;;;;;;;25.10;14.83;;;;;;;;;;5010799;28;20196;-71
2020/12/23 08:13:02;;;;;;;166.23;85.30;;;;;;;;;;4994146;28;20548;-71
2020/12/23 08:16:08;;;;;;;59.40;32.93;;;;;;;;;;4994136;28;20181;-71
2020/12/23 08:19:16;;;;;;;78.63;41.87;;;;;;;;;;4993980;28;20194;-71
2020/12/23 08:22:22;;;;;;;41.00;23.40;;;;;;;;;;5000667;28;20593;-71
2020/12/23 08:25:29;;;;;;;23.43;13.60;;;;;;;;;;5012613;28;20204;-71
2020/12/23 08:28:35;;;;;;;13.23;8.13;;;;;;;;;;4993926;28;20185;-71
2020/12/23 08:31:41;;;;;;;40.83;22.50;;;;;;;;;;4970667;28;20226;-71
2020/12/23 08:34:46;;;;;;;31.80;18.50;;;;;;;;;;4994017;28;20189;-71
2020/12/23 08:37:50;;;;;;;8.43;4.97;;;;;;;;;;4985776;28;20188;-71
2020/12/23 08:40:59;;;;;;;2.33;1.37;;;;;;;;;;4993855;28;20214;-71
2020/12/23 08:44:04;;;;;;;1.03;0.77;;;;;;;;;;4994985;28;20197;-71
2020/12/23 08:47:10;;;;;;;1.20;0.90;;;;;;;;;;4996504;28;20684;-71
2020/12/23 08:50:16;;;;;;;3.77;0.97;;;;;;;;;;4998744;28;20197;-71
2020/12/23 08:53:34;;;;;;;0.83;0.57;;;;;;;;;;5013092;28;20181;-71
2020/12/23 08:56:46;;;;;;;1.23;0.77;;;;;;;;;;5013137;28;20178;-72
2020/12/23 08:59:51;;;;;;;1.20;0.80;;;;;;;;;;5013054;28;20194;-72
2020/12/23 09:02:55;;;;;;;2.97;1.30;;;;;;;;;;4981853;28;20190;-71
2020/12/23 09:05:59;;;;;;;3.13;0.90;;;;;;;;;;5009971;28;20189;-71
2020/12/23 09:09:21;;;;;;;4.47;0.90;;;;;;;;;;5000844;28;20206;-71
2020/12/23 09:12:25;;;;;;;3.10;1.10;;;;;;;;;;5009532;28;20218;-72
2020/12/23 09:15:32;;;;;;;4.93;2.47;;;;;;;;;;4994273;28;20202;-71
2020/12/23 09:18:36;;;;;;;1.80;1.63;;;;;;;;;;5012906;28;20174;-71
2020/12/23 09:21:40;;;;;;;3.63;3.30;;;;;;;;;;5012454;28;20225;-71
2020/12/23 09:24:45;;;;;;;5.77;5.23;;;;;;;;;;5013015;28;20197;-71
2020/12/23 09:27:50;;;;;;;7.93;5.87;;;;;;;;;;4999844;28;20220;-71
2020/12/23 09:31:01;;;;;;;3.37;3.07;;;;;;;;;;5011610;28;20565;-71
2020/12/23 09:34:05;;;;;;;2.50;1.80;;;;;;;;;;4982290;28;20194;-71
2020/12/23 09:37:26;;;;;;;3.17;2.20;;;;;;;;;;5001436;28;20181;-71
2020/12/23 09:40:31;;;;;;;2.47;2.10;;;;;;;;;;4994406;28;20195;-70
2020/12/23 09:43:36;;;;;;;4.23;2.80;;;;;;;;;;4996922;28;20633;-70
2020/12/23 09:46:40;;;;;;;2.00;1.50;;;;;;;;;;4996835;28;20209;-71
2020/12/23 09:49:44;;;;;;;4.63;1.43;;;;;;;;;;4996618;28;20210;-71
2020/12/23 09:52:49;;;;;;;2.00;1.73;;;;;;;;;;4996416;28;20222;-71
2020/12/23 09:55:54;;;;;;;3.57;2.00;;;;;;;;;;4996688;28;20190;-71
2020/12/23 09:58:58;;;;;;;5.17;2.97;;;;;;;;;;5002888;28;20190;-71
2020/12/23 10:02:02;;;;;;;4.20;2.43;;;;;;;;;;5016069;28;20225;-71
2020/12/23 10:05:06;;;;;;;4.97;2.67;;;;;;;;;;5016107;28;20174;-71
2020/12/23 10:08:11;;;;;;;4.57;2.67;;;;;;;;;;4992963;28;20198;-71
2020/12/23 10:11:17;;;;;;;4.07;2.70;;;;;;;;;;4996426;28;20218;-71
2020/12/23 10:14:21;;;;;;;5.07;2.37;;;;;;;;;;4984413;28;20178;-72
2020/12/23 10:17:25;;;;;;;3.77;2.40;;;;;;;;;;5006399;28;20181;-70
2020/12/23 10:20:29;;;;;;;2.67;1.70;;;;;;;;;;4998790;22;20233;-73
2020/12/23 10:23:33;;;;;;;1.53;1.13;;;;;;;;;;4995552;28;20186;-73
2020/12/23 10:26:37;;;;;;;2.03;1.50;;;;;;;;;;4995979;28;20213;-73
2020/12/23 10:29:42;;;;;;;1.57;1.20;;;;;;;;;;4996325;28;20182;-73
2020/12/23 10:32:46;;;;;;;1.80;1.60;;;;;;;;;;4996036;28;20221;-73
2020/12/23 10:35:50;;;;;;;3.97;1.47;;;;;;;;;;4976563;28;20203;-73
2020/12/23 10:38:54;;;;;;;1.60;1.20;;;;;;;;;;4983197;28;20198;-73
2020/12/23 10:41:59;;;;;;;1.47;1.30;;;;;;;;;;4995879;28;20214;-73
2020/12/23 10:45:06;;;;;;;3.10;2.03;;;;;;;;;;4995231;28;20178;-73
2020/12/23 10:48:10;;;;;;;2.83;1.17;;;;;;;;;;4994892;28;20218;-73
2020/12/23 10:51:14;;;;;;;2.93;1.97;;;;;;;;;;4994004;28;20218;-73
2020/12/23 10:54:19;;;;;;;3.90;2.70;;;;;;;;;;4996181;28;20534;-73
2020/12/23 10:57:23;;;;;;;4.80;3.30;;;;;;;;;;4995607;28;20186;-73
2020/12/23 11:00:28;;;;;;;5.90;2.77;;;;;;;;;;4995441;28;20189;-73
2020/12/23 11:03:32;;;;;;;6.70;3.57;;;;;;;;;;4994040;28;20182;-73
2020/12/23 11:06:37;;;;;;;4.97;2.90;;;;;;;;;;4995441;28;20194;-73
2020/12/23 11:09:42;;;;;;;6.53;3.53;;;;;;;;;;4996322;28;20201;-73
2020/12/23 11:12:48;;;;;;;5.37;2.20;;;;;;;;;;4996190;28;20221;-73
2020/12/23 11:15:52;;;;;;;3.77;2.63;;;;;;;;;;5001224;28;20186;-72
2020/12/23 11:18:57;;;;;;;4.30;2.43;;;;;;;;;;5009760;28;20538;-72
2020/12/23 11:22:01;;;;;;;2.10;1.50;;;;;;;;;;4995425;28;20225;-74
2020/12/23 11:25:06;;;;;;;3.57;2.20;;;;;;;;;;4996207;28;20202;-73
2020/12/23 11:28:10;;;;;;;4.23;1.27;;;;;;;;;;4996013;28;20206;-73
2020/12/23 11:31:15;;;;;;;2.37;1.37;;;;;;;;;;4994366;28;20222;-72
2020/12/23 11:34:19;;;;;;;2.63;1.43;;;;;;;;;;4996082;28;20641;-73
2020/12/23 11:37:23;;;;;;;3.10;1.20;;;;;;;;;;4996028;28;20174;-72
2020/12/23 11:40:27;;;;;;;3.10;1.30;;;;;;;;;;4980139;28;20190;-73
2020/12/23 11:43:31;;;;;;;4.60;1.40;;;;;;;;;;4995265;28;20198;-73
2020/12/23 11:46:36;;;;;;;1.70;1.20;;;;;;;;;;4995983;28;20178;-73
2020/12/23 11:49:40;;;;;;;1.63;1.30;;;;;;;;;;4994703;28;20190;-73
2020/12/23 11:52:45;;;;;;;3.60;1.20;;;;;;;;;;4995108;28;20214;-73
2020/12/23 11:55:50;;;;;;;2.27;1.10;;;;;;;;;;4995309;28;20523;-73
2020/12/23 11:58:54;;;;;;;1.83;1.20;;;;;;;;;;4976441;28;20178;-72
2020/12/23 12:01:58;;;;;;;4.77;1.10;;;;;;;;;;4987816;28;20213;-72
2020/12/23 12:05:02;;;;;;;3.23;1.20;;;;;;;;;;4995479;28;20202;-73
2020/12/23 12:08:08;;;;;;;1.80;1.10;;;;;;;;;;5001446;28;20209;-73
2020/12/23 12:11:17;;;;;;;1.57;0.90;;;;;;;;;;4994478;28;20225;-73
2020/12/23 12:14:28;;;;;;;1.73;0.90;;;;;;;;;;4993183;28;20190;-73
2020/12/23 12:17:46;;;;;;;1.00;0.90;;;;;;;;;;4993930;28;20178;-73
2020/12/23 12:20:57;;;;;;;2.00;0.70;;;;;;;;;;4982336;28;20704;-73
2020/12/23 12:24:01;;;;;;;1.10;0.80;;;;;;;;;;4993321;28;20202;-73
2020/12/23 12:27:05;;;;;;;0.80;0.70;;;;;;;;;;4974650;28;20187;-73
2020/12/23 12:30:10;;;;;;;13.70;4.23;;;;;;;;;;4976021;28;20187;-73
2020/12/23 12:33:15;;;;;;;17.50;4.10;;;;;;;;;;4975333;28;20183;-73
2020/12/23 12:36:21;;;;;;;2.50;1.37;;;;;;;;;;4989639;28;20194;-73
2020/12/23 12:39:26;;;;;;;1.40;1.30;;;;;;;;;;4993928;28;20178;-73
2020/12/23 12:42:31;;;;;;;3.43;1.10;;;;;;;;;;4973517;28;20219;-73
2020/12/23 12:45:35;;;;;;;1.47;1.30;;;;;;;;;;4974358;28;20194;-73
2020/12/23 12:48:39;;;;;;;1.60;1.30;;;;;;;;;;4976848;28;20210;-73
2020/12/23 12:51:44;;;;;;;1.53;1.20;;;;;;;;;;4992882;28;20214;-73
2020/12/23 12:54:48;;;;;;;9.17;4.13;;;;;;;;;;4992429;28;20197;-73
2020/12/23 12:57:52;;;;;;;3.73;2.33;;;;;;;;;;4981601;28;20174;-73
2020/12/23 13:00:56;;;;;;;1.80;1.47;;;;;;;;;;4993268;28;20213;-73
2020/12/23 13:04:01;;;;;;;3.43;1.40;;;;;;;;;;4981575;28;20198;-73
2020/12/23 13:07:05;;;;;;;4.73;1.13;;;;;;;;;;4993107;28;20198;-73
2020/12/23 13:10:09;;;;;;;2.47;1.30;;;;;;;;;;4993766;28;20182;-73
2020/12/23 13:13:13;;;;;;;1.80;1.30;;;;;;;;;;4993416;28;20182;-73
2020/12/23 13:16:18;;;;;;;4.20;1.10;;;;;;;;;;4978363;28;20183;-73
2020/12/23 13:19:22;;;;;;;2.50;0.90;;;;;;;;;;4984003;28;20206;-73
2020/12/23 13:22:27;;;;;;;2.30;1.00;;;;;;;;;;4996303;28;20218;-73
2020/12/23 13:25:31;;;;;;;2.03;0.80;;;;;;;;;;4997208;28;20197;-73
2020/12/23 13:28:37;;;;;;;1.07;0.90;;;;;;;;;;4996813;28;20225;-73
2020/12/23 13:31:41;;;;;;;2.40;1.47;;;;;;;;;;4996924;28;20218;-73
2020/12/23 13:34:45;;;;;;;3.80;2.23;;;;;;;;;;4984636;28;20197;-73
2020/12/23 13:37:50;;;;;;;3.60;2.67;;;;;;;;;;4996866;28;20178;-73
2020/12/23 13:40:55;;;;;;;3.87;1.80;;;;;;;;;;4996527;28;20222;-73
2020/12/23 13:43:59;;;;;;;3.73;2.27;;;;;;;;;;4996911;28;20182;-73
2020/12/23 13:47:04;;;;;;;2.87;2.00;;;;;;;;;;4965264;28;20207;-74
2020/12/23 13:50:09;;;;;;;4.53;2.30;;;;;;;;;;4977257;28;20191;-75
2020/12/23 13:53:13;;;;;;;5.00;1.97;;;;;;;;;;4980697;28;20186;-74
2020/12/23 13:56:19;;;;;;;2.70;1.53;;;;;;;;;;4995955;28;20178;-74
2020/12/23 13:59:23;;;;;;;2.50;1.00;;;;;;;;;;4995853;28;20194;-74
2020/12/23 14:02:27;;;;;;;1.83;0.90;;;;;;;;;;4995816;28;20221;-74
2020/12/23 14:05:31;;;;;;;1.80;1.03;;;;;;;;;;4996880;28;20354;-73
2020/12/23 14:09:25;;;;;;;3.10;1.07;;;;;;;;;;4997644;28;20660;-72
2020/12/23 14:12:30;;;;;;;2.43;1.30;;;;;;;;;;4996076;28;20707;-73
2020/12/23 14:15:34;;;;;;;0.77;0.60;;;;;;;;;;4995985;28;20190;-73
2020/12/23 14:18:38;;;;;;;4.63;1.93;;;;;;;;;;4995277;28;20186;-73
2020/12/23 14:21:44;;;;;;;6.87;1.83;;;;;;;;;;4996643;28;20229;-73
2020/12/23 14:24:48;;;;;;;1.07;0.80;;;;;;;;;;4996354;28;20178;-73
2020/12/23 14:27:53;;;;;;;1.30;0.70;;;;;;;;;;4996282;28;20210;-73
2020/12/23 14:30:57;;;;;;;2.10;0.90;;;;;;;;;;4995715;28;20222;-73
2020/12/23 14:34:03;;;;;;;1.10;0.63;;;;;;;;;;4995781;28;20526;-73
2020/12/23 14:37:07;;;;;;;3.07;0.70;;;;;;;;;;4995919;28;20178;-73
2020/12/23 14:40:11;;;;;;;0.73;0.53;;;;;;;;;;4996025;28;20186;-72
2020/12/23 14:43:15;;;;;;;2.50;0.70;;;;;;;;;;4995894;28;20189;-73
2020/12/23 14:46:19;;;;;;;0.93;0.70;;;;;;;;;;4994812;28;20198;-73
2020/12/23 14:49:24;;;;;;;1.97;0.57;;;;;;;;;;4994913;28;20676;-77
2020/12/23 14:52:28;;;;;;;1.77;1.27;;;;;;;;;;4996014;28;20209;-73
2020/12/23 14:55:32;;;;;;;0.77;0.70;;;;;;;;;;4993881;28;20194;-73
2020/12/23 14:58:37;;;;;;;1.53;1.23;;;;;;;;;;4994969;28;20183;-73
2020/12/23 15:01:46;;;;;;;1.67;1.00;;;;;;;;;;4995405;28;20221;-72
2020/12/23 15:04:50;;;;;;;1.40;1.20;;;;;;;;;;4996580;28;20190;-73
2020/12/23 15:07:56;;;;;;;1.50;0.80;;;;;;;;;;4995633;28;20201;-73
2020/12/23 15:10:59;;;;;;;3.40;0.93;;;;;;;;;;4996130;28;20689;-73
2020/12/23 15:14:03;;;;;;;1.27;0.80;;;;;;;;;;4994720;28;20189;-73
2020/12/23 15:17:08;;;;;;;4.73;2.20;;;;;;;;;;4994798;28;20182;-73
2020/12/23 15:20:12;;;;;;;2.30;1.50;;;;;;;;;;4995069;28;20550;-73
2020/12/23 15:23:16;;;;;;;1.90;1.53;;;;;;;;;;4996316;28;20194;-73
2020/12/23 15:26:20;;;;;;;3.03;1.60;;;;;;;;;;5001650;28;20640;-73
2020/12/23 15:29:24;;;;;;;2.53;1.97;;;;;;;;;;5009574;28;20210;-73
2020/12/23 15:32:29;;;;;;;3.33;1.70;;;;;;;;;;4995754;28;20225;-72
2020/12/23 15:35:33;;;;;;;3.63;2.40;;;;;;;;;;4976710;28;20179;-73
2020/12/23 15:38:39;;;;;;;4.43;2.07;;;;;;;;;;4975934;28;20197;-73
2020/12/23 15:41:50;;;;;;;3.30;1.80;;;;;;;;;;4978224;28;20222;-73
2020/12/23 15:44:54;;;;;;;2.87;1.97;;;;;;;;;;4995124;28;20198;-73
2020/12/23 15:47:59;;;;;;;2.40;1.50;;;;;;;;;;4983842;28;20187;-73
2020/12/23 15:51:07;;;;;;;2.10;1.90;;;;;;;;;;4976391;28;20226;-73
2020/12/23 15:54:11;;;;;;;2.87;2.00;;;;;;;;;;4975837;28;20187;-74
2020/12/23 15:57:15;;;;;;;2.63;1.70;;;;;;;;;;4991257;28;20201;-72
2020/12/23 16:00:20;;;;;;;2.10;1.70;;;;;;;;;;5009916;28;20197;-74
2020/12/23 16:03:24;;;;;;;1.80;1.40;;;;;;;;;;5014593;28;20193;-73
2020/12/23 16:06:28;;;;;;;2.73;1.40;;;;;;;;;;4992953;28;20190;-73
2020/12/23 16:09:32;;;;;;;2.60;2.40;;;;;;;;;;4992769;28;20673;-74
2020/12/23 16:12:39;;;;;;;4.00;2.73;;;;;;;;;;4993066;28;20213;-74
2020/12/23 16:15:43;;;;;;;4.23;3.83;;;;;;;;;;4994359;28;20534;-74
2020/12/23 16:18:47;;;;;;;3.30;2.77;;;;;;;;;;4994419;28;20182;-73
2020/12/23 16:21:52;;;;;;;1.80;1.50;;;;;;;;;;4994715;28;20226;-73
2020/12/23 16:24:56;;;;;;;2.00;1.50;;;;;;;;;;4994034;28;20534;-73
2020/12/23 16:28:00;;;;;;;2.27;1.43;;;;;;;;;;4993378;28;20561;-73
2020/12/23 16:31:04;;;;;;;5.10;2.27;;;;;;;;;;4990420;28;20218;-73
2020/12/23 16:34:09;;;;;;;2.20;1.70;;;;;;;;;;4995262;28;20181;-73
2020/12/23 16:37:13;;;;;;;1.83;1.30;;;;;;;;;;4995285;28;20198;-72
2020/12/23 16:40:18;;;;;;;1.40;1.23;;;;;;;;;;4994841;28;20530;-73
2020/12/23 16:43:22;;;;;;;1.30;1.10;;;;;;;;;;4994883;28;20541;-73
2020/12/23 16:46:26;;;;;;;2.27;1.27;;;;;;;;;;4994056;28;20181;-72
2020/12/23 16:49:30;;;;;;;1.40;1.23;;;;;;;;;;4998136;28;20232;-73
2020/12/23 16:52:34;;;;;;;2.80;1.13;;;;;;;;;;4998645;28;20229;-73
2020/12/23 16:55:38;;;;;;;1.93;1.53;;;;;;;;;;4998440;28;20186;-73
2020/12/23 16:58:43;;;;;;;3.17;1.20;;;;;;;;;;4998546;28;20178;-73
2020/12/23 17:02:17;;;;;;;1.50;1.33;;;;;;;;;;4997930;28;20570;-74
2020/12/23 17:05:23;;;;;;;2.87;1.80;;;;;;;;;;4998170;28;20178;-73
2020/12/23 17:08:27;;;;;;;2.65;2.30;;;;;;;;;;4996987;28;20193;-73
2020/12/23 17:11:31;;;;;;;3.70;2.40;;;;;;;;;;4997304;28;20221;-72
2020/12/23 17:14:36;;;;;;;3.40;2.37;;;;;;;;;;4997551;28;20182;-73
2020/12/23 17:17:41;;;;;;;2.50;2.30;;;;;;;;;;4996075;28;20527;-73
2020/12/23 17:20:45;;;;;;;3.47;1.83;;;;;;;;;;4977562;28;20202;-73
2020/12/23 17:23:50;;;;;;;3.17;1.97;;;;;;;;;;4995509;28;20198;-73
2020/12/23 17:26:54;;;;;;;3.03;2.13;;;;;;;;;;4996655;28;20194;-74
2020/12/23 17:29:58;;;;;;;2.80;2.10;;;;;;;;;;4997276;28;20202;-74
2020/12/23 17:33:03;;;;;;;2.80;2.20;;;;;;;;;;4995627;28;20206;-73
2020/12/23 17:36:07;;;;;;;3.60;2.17;;;;;;;;;;4997248;28;20174;-73
2020/12/23 17:39:12;;;;;;;5.03;2.10;;;;;;;;;;4996083;28;20189;-73
2020/12/23 17:42:16;;;;;;;3.13;2.13;;;;;;;;;;4995744;28;20566;-74
2020/12/23 17:45:20;;;;;;;4.80;2.03;;;;;;;;;;4996422;28;20182;-73
2020/12/23 17:48:25;;;;;;;6.33;2.03;;;;;;;;;;4996226;28;20198;-73
2020/12/23 17:51:30;;;;;;;2.50;1.77;;;;;;;;;;4985534;28;20218;-73
2020/12/23 17:54:34;;;;;;;2.97;1.97;;;;;;;;;;4996305;28;20186;-73
2020/12/23 17:57:39;;;;;;;6.97;1.90;;;;;;;;;;4996452;28;20190;-72
2020/12/23 18:00:43;;;;;;;5.80;2.00;;;;;;;;;;4995274;28;20183;-73
2020/12/23 18:03:48;;;;;;;2.57;1.67;;;;;;;;;;4981649;28;20186;-73
2020/12/23 18:06:52;;;;;;;2.67;2.30;;;;;;;;;;4999874;28;20178;-73
2020/12/23 18:09:56;;;;;;;2.37;1.70;;;;;;;;;;5017063;28;20210;-73
2020/12/23 18:13:00;;;;;;;7.23;2.60;;;;;;;;;;5017168;28;20181;-74
2020/12/23 18:16:05;;;;;;;10.20;5.77;;;;;;;;;;5017368;28;20205;-73
2020/12/23 18:19:09;;;;;;;5.67;2.93;;;;;;;;;;5016763;28;20198;-73
2020/12/23 18:22:15;;;;;;;2.60;2.00;;;;;;;;;;4997493;28;20700;-73
2020/12/23 18:25:19;;;;;;;2.63;1.57;;;;;;;;;;4996235;28;20182;-73
2020/12/23 18:28:23;;;;;;;4.73;2.03;;;;;;;;;;4995287;28;20202;-73